sensor_id;sensor_type;location;lat;lon;timestamp;temperature;humidity
41437;DHT22;27178;49.460;10.850;2023-05-07T00:01:26;18.60;61.30
41437;DHT22;27178;49.460;10.850;2023-05-07T00:03:54;18.60;61.50
41437;DHT22;27178;49.460;10.850;2023-05-07T00:06:23;18.60;61.70
41437;DHT22;27178;49.460;10.850;2023-05-07T00:08:52;18.50;61.90
41437;DHT22;27178;49.460;10.850;2023-05-07T00:11:22;18.50;61.90
41437;DHT22;27178;49.460;10.850;2023-05-07T00:13:50;18.50;62.10
41437;DHT22;27178;49.460;10.850;2023-05-07T00:16:19;18.50;62.10
41437;DHT22;27178;49.460;10.850;2023-05-07T00:18:47;18.50;62.10
41437;DHT22;27178;49.460;10.850;2023-05-07T00:21:16;18.40;62.20
41437;DHT22;27178;49.460;10.850;2023-05-07T00:23:44;18.40;62.30
41437;DHT22;27178;49.460;10.850;2023-05-07T00:26:12;18.40;62.30
41437;DHT22;27178;49.460;10.850;2023-05-07T00:28:42;18.40;62.30
41437;DHT22;27178;49.460;10.850;2023-05-07T00:31:11;18.30;62.50
41437;DHT22;27178;49.460;10.850;2023-05-07T00:33:39;18.30;62.50
41437;DHT22;27178;49.460;10.850;2023-05-07T00:36:07;18.30;62.60
41437;DHT22;27178;49.460;10.850;2023-05-07T00:38:35;18.30;62.90
41437;DHT22;27178;49.460;10.850;2023-05-07T00:41:04;18.30;63.00
41437;DHT22;27178;49.460;10.850;2023-05-07T00:43:33;18.30;63.10
41437;DHT22;27178;49.460;10.850;2023-05-07T00:46:02;18.20;63.20
41437;DHT22;27178;49.460;10.850;2023-05-07T00:48:31;18.20;63.40
41437;DHT22;27178;49.460;10.850;2023-05-07T00:51:00;18.20;63.50
41437;DHT22;27178;49.460;10.850;2023-05-07T00:53:29;18.20;63.60
41437;DHT22;27178;49.460;10.850;2023-05-07T00:55:58;18.20;64.70
41437;DHT22;27178;49.460;10.850;2023-05-07T00:58:27;18.10;63.80
41437;DHT22;27178;49.460;10.850;2023-05-07T01:00:55;18.10;63.90
41437;DHT22;27178;49.460;10.850;2023-05-07T01:03:25;18.10;64.00
41437;DHT22;27178;49.460;10.850;2023-05-07T01:05:55;18.10;64.20
41437;DHT22;27178;49.460;10.850;2023-05-07T01:08:26;18.10;64.10
41437;DHT22;27178;49.460;10.850;2023-05-07T01:10:56;18.10;64.20
41437;DHT22;27178;49.460;10.850;2023-05-07T01:13:25;18.10;64.20
41437;DHT22;27178;49.460;10.850;2023-05-07T01:15:53;18.10;64.30
41437;DHT22;27178;49.460;10.850;2023-05-07T01:18:22;18.10;64.30
41437;DHT22;27178;49.460;10.850;2023-05-07T01:20:52;18.10;64.30
41437;DHT22;27178;49.460;10.850;2023-05-07T01:23:22;18.10;64.40
41437;DHT22;27178;49.460;10.850;2023-05-07T01:25:51;18.10;65.40
41437;DHT22;27178;49.460;10.850;2023-05-07T01:28:20;18.10;64.50
41437;DHT22;27178;49.460;10.850;2023-05-07T01:31:00;18.10;64.50
41437;DHT22;27178;49.460;10.850;2023-05-07T01:33:31;18.10;65.00
41437;DHT22;27178;49.460;10.850;2023-05-07T01:36:00;18.10;64.60
41437;DHT22;27178;49.460;10.850;2023-05-07T01:38:32;18.10;64.70
41437;DHT22;27178;49.460;10.850;2023-05-07T01:41:02;18.10;64.80
41437;DHT22;27178;49.460;10.850;2023-05-07T01:43:30;18.10;64.80
41437;DHT22;27178;49.460;10.850;2023-05-07T01:46:00;18.10;64.80
41437;DHT22;27178;49.460;10.850;2023-05-07T01:48:29;18.10;65.00
41437;DHT22;27178;49.460;10.850;2023-05-07T01:50:59;18.00;65.00
41437;DHT22;27178;49.460;10.850;2023-05-07T01:53:27;18.00;64.90
41437;DHT22;27178;49.460;10.850;2023-05-07T01:55:57;18.10;64.80
41437;DHT22;27178;49.460;10.850;2023-05-07T01:58:26;18.00;64.90
41437;DHT22;27178;49.460;10.850;2023-05-07T02:00:54;18.00;64.90
41437;DHT22;27178;49.460;10.850;2023-05-07T02:03:23;18.00;64.90
41437;DHT22;27178;49.460;10.850;2023-05-07T02:05:51;18.00;65.00
41437;DHT22;27178;49.460;10.850;2023-05-07T02:08:20;18.00;65.00
41437;DHT22;27178;49.460;10.850;2023-05-07T02:10:48;18.00;65.00
41437;DHT22;27178;49.460;10.850;2023-05-07T02:13:18;17.90;65.00
41437;DHT22;27178;49.460;10.850;2023-05-07T02:15:49;17.90;65.00
41437;DHT22;27178;49.460;10.850;2023-05-07T02:18:17;17.90;64.90
41437;DHT22;27178;49.460;10.850;2023-05-07T02:20:45;17.90;65.00
41437;DHT22;27178;49.460;10.850;2023-05-07T02:23:14;17.80;65.00
41437;DHT22;27178;49.460;10.850;2023-05-07T02:25:42;17.80;65.00
41437;DHT22;27178;49.460;10.850;2023-05-07T02:28:11;17.80;65.20
41437;DHT22;27178;49.460;10.850;2023-05-07T02:30:40;17.70;65.10
41437;DHT22;27178;49.460;10.850;2023-05-07T02:33:09;17.70;65.20
41437;DHT22;27178;49.460;10.850;2023-05-07T02:35:39;17.60;65.10
41437;DHT22;27178;49.460;10.850;2023-05-07T02:38:08;17.60;65.10
41437;DHT22;27178;49.460;10.850;2023-05-07T02:40:37;17.60;65.20
41437;DHT22;27178;49.460;10.850;2023-05-07T02:43:07;17.50;65.20
41437;DHT22;27178;49.460;10.850;2023-05-07T02:45:35;17.50;65.20
41437;DHT22;27178;49.460;10.850;2023-05-07T02:48:06;17.50;65.60
41437;DHT22;27178;49.460;10.850;2023-05-07T02:50:34;17.50;65.40
41437;DHT22;27178;49.460;10.850;2023-05-07T02:53:03;17.40;65.40
41437;DHT22;27178;49.460;10.850;2023-05-07T02:55:32;17.40;65.40
41437;DHT22;27178;49.460;10.850;2023-05-07T02:58:00;17.30;65.40
41437;DHT22;27178;49.460;10.850;2023-05-07T03:00:28;17.30;65.50
41437;DHT22;27178;49.460;10.850;2023-05-07T03:02:57;17.20;65.60
41437;DHT22;27178;49.460;10.850;2023-05-07T03:05:27;17.20;65.70
41437;DHT22;27178;49.460;10.850;2023-05-07T03:07:55;17.20;65.90
41437;DHT22;27178;49.460;10.850;2023-05-07T03:10:24;17.20;66.00
41437;DHT22;27178;49.460;10.850;2023-05-07T03:12:52;17.10;66.00
41437;DHT22;27178;49.460;10.850;2023-05-07T03:15:21;17.10;66.20
41437;DHT22;27178;49.460;10.850;2023-05-07T03:17:49;17.00;66.30
41437;DHT22;27178;49.460;10.850;2023-05-07T03:20:18;17.00;66.40
41437;DHT22;27178;49.460;10.850;2023-05-07T03:22:48;17.00;66.50
41437;DHT22;27178;49.460;10.850;2023-05-07T03:25:16;17.00;66.70
41437;DHT22;27178;49.460;10.850;2023-05-07T03:27:44;17.00;66.70
41437;DHT22;27178;49.460;10.850;2023-05-07T03:30:13;17.00;66.80
41437;DHT22;27178;49.460;10.850;2023-05-07T03:32:41;17.00;66.90
41437;DHT22;27178;49.460;10.850;2023-05-07T03:35:09;16.90;66.80
41437;DHT22;27178;49.460;10.850;2023-05-07T03:37:38;16.90;66.90
41437;DHT22;27178;49.460;10.850;2023-05-07T03:40:09;16.90;67.10
41437;DHT22;27178;49.460;10.850;2023-05-07T03:42:39;16.90;67.10
41437;DHT22;27178;49.460;10.850;2023-05-07T03:45:08;16.90;67.10
41437;DHT22;27178;49.460;10.850;2023-05-07T03:47:37;16.80;67.20
41437;DHT22;27178;49.460;10.850;2023-05-07T03:50:06;16.90;67.30
41437;DHT22;27178;49.460;10.850;2023-05-07T03:52:35;16.80;67.40
41437;DHT22;27178;49.460;10.850;2023-05-07T03:55:04;16.80;67.40
41437;DHT22;27178;49.460;10.850;2023-05-07T03:57:34;16.80;67.60
41437;DHT22;27178;49.460;10.850;2023-05-07T04:00:03;16.80;67.60
41437;DHT22;27178;49.460;10.850;2023-05-07T04:02:33;16.80;67.70
41437;DHT22;27178;49.460;10.850;2023-05-07T04:05:01;16.80;67.70
41437;DHT22;27178;49.460;10.850;2023-05-07T04:07:29;16.80;67.80
41437;DHT22;27178;49.460;10.850;2023-05-07T04:09:58;16.80;67.90
41437;DHT22;27178;49.460;10.850;2023-05-07T04:12:27;16.80;67.90
41437;DHT22;27178;49.460;10.850;2023-05-07T04:14:56;16.80;67.80
41437;DHT22;27178;49.460;10.850;2023-05-07T04:17:25;16.80;67.80
41437;DHT22;27178;49.460;10.850;2023-05-07T04:19:53;16.80;67.70
41437;DHT22;27178;49.460;10.850;2023-05-07T04:22:21;16.80;67.80
41437;DHT22;27178;49.460;10.850;2023-05-07T04:24:49;16.80;68.00
41437;DHT22;27178;49.460;10.850;2023-05-07T04:27:18;16.80;68.10
41437;DHT22;27178;49.460;10.850;2023-05-07T04:29:47;15.60;67.50
41437;DHT22;27178;49.460;10.850;2023-05-07T04:32:16;16.80;68.40
41437;DHT22;27178;49.460;10.850;2023-05-07T04:34:45;16.80;68.50
41437;DHT22;27178;49.460;10.850;2023-05-07T04:37:13;16.80;68.50
41437;DHT22;27178;49.460;10.850;2023-05-07T04:39:42;16.80;68.70
41437;DHT22;27178;49.460;10.850;2023-05-07T04:42:14;16.70;68.70
41437;DHT22;27178;49.460;10.850;2023-05-07T04:44:43;16.70;68.90
41437;DHT22;27178;49.460;10.850;2023-05-07T04:47:11;16.70;68.80
41437;DHT22;27178;49.460;10.850;2023-05-07T04:49:41;16.70;69.00
41437;DHT22;27178;49.460;10.850;2023-05-07T04:52:09;16.70;69.00
41437;DHT22;27178;49.460;10.850;2023-05-07T04:54:37;16.70;69.10
41437;DHT22;27178;49.460;10.850;2023-05-07T04:57:06;16.70;69.10
41437;DHT22;27178;49.460;10.850;2023-05-07T04:59:34;16.70;69.30
41437;DHT22;27178;49.460;10.850;2023-05-07T05:02:03;16.70;69.30
41437;DHT22;27178;49.460;10.850;2023-05-07T05:04:32;16.80;69.50
41437;DHT22;27178;49.460;10.850;2023-05-07T05:07:01;16.80;69.60
41437;DHT22;27178;49.460;10.850;2023-05-07T05:09:31;16.80;69.80
41437;DHT22;27178;49.460;10.850;2023-05-07T05:12:00;16.80;69.80
41437;DHT22;27178;49.460;10.850;2023-05-07T05:14:29;16.90;69.90
41437;DHT22;27178;49.460;10.850;2023-05-07T05:16:57;16.90;69.70
41437;DHT22;27178;49.460;10.850;2023-05-07T05:19:25;16.90;69.70
41437;DHT22;27178;49.460;10.850;2023-05-07T05:21:54;16.90;69.50
41437;DHT22;27178;49.460;10.850;2023-05-07T05:24:24;17.00;69.60
41437;DHT22;27178;49.460;10.850;2023-05-07T05:26:53;17.00;69.60
41437;DHT22;27178;49.460;10.850;2023-05-07T05:29:21;17.10;69.60
41437;DHT22;27178;49.460;10.850;2023-05-07T05:31:50;17.10;69.50
41437;DHT22;27178;49.460;10.850;2023-05-07T05:34:18;17.20;69.50
41437;DHT22;27178;49.460;10.850;2023-05-07T05:36:46;17.20;69.50
41437;DHT22;27178;49.460;10.850;2023-05-07T05:39:14;17.20;69.50
41437;DHT22;27178;49.460;10.850;2023-05-07T05:41:44;17.30;69.60
41437;DHT22;27178;49.460;10.850;2023-05-07T05:44:12;17.30;69.70
41437;DHT22;27178;49.460;10.850;2023-05-07T05:46:41;17.30;69.50
41437;DHT22;27178;49.460;10.850;2023-05-07T05:49:10;17.30;69.60
41437;DHT22;27178;49.460;10.850;2023-05-07T05:51:38;17.40;69.70
41437;DHT22;27178;49.460;10.850;2023-05-07T05:54:06;17.40;69.70
41437;DHT22;27178;49.460;10.850;2023-05-07T05:56:34;17.50;69.60
41437;DHT22;27178;49.460;10.850;2023-05-07T05:59:04;17.50;69.60
41437;DHT22;27178;49.460;10.850;2023-05-07T06:01:33;17.50;69.50
41437;DHT22;27178;49.460;10.850;2023-05-07T06:04:01;17.50;69.40
41437;DHT22;27178;49.460;10.850;2023-05-07T06:06:30;17.60;69.30
41437;DHT22;27178;49.460;10.850;2023-05-07T06:08:59;17.70;69.30
41437;DHT22;27178;49.460;10.850;2023-05-07T06:11:27;17.70;69.30
41437;DHT22;27178;49.460;10.850;2023-05-07T06:13:56;17.70;69.10
41437;DHT22;27178;49.460;10.850;2023-05-07T06:16:26;17.80;69.20
41437;DHT22;27178;49.460;10.850;2023-05-07T06:18:54;17.80;69.10
41437;DHT22;27178;49.460;10.850;2023-05-07T06:21:22;17.80;69.00
41437;DHT22;27178;49.460;10.850;2023-05-07T06:23:51;17.90;68.90
41437;DHT22;27178;49.460;10.850;2023-05-07T06:26:21;17.90;68.90
41437;DHT22;27178;49.460;10.850;2023-05-07T06:28:50;17.90;68.90
41437;DHT22;27178;49.460;10.850;2023-05-07T06:31:19;18.00;68.90
41437;DHT22;27178;49.460;10.850;2023-05-07T06:33:49;18.00;68.90
41437;DHT22;27178;49.460;10.850;2023-05-07T06:36:18;18.10;69.70
41437;DHT22;27178;49.460;10.850;2023-05-07T06:38:46;18.10;68.70
41437;DHT22;27178;49.460;10.850;2023-05-07T06:41:15;18.20;68.80
41437;DHT22;27178;49.460;10.850;2023-05-07T06:43:43;18.20;68.60
41437;DHT22;27178;49.460;10.850;2023-05-07T06:46:11;18.30;68.60
41437;DHT22;27178;49.460;10.850;2023-05-07T06:48:40;18.30;68.50
41437;DHT22;27178;49.460;10.850;2023-05-07T06:51:10;18.40;68.40
41437;DHT22;27178;49.460;10.850;2023-05-07T06:53:38;18.40;68.20
41437;DHT22;27178;49.460;10.850;2023-05-07T06:56:07;18.50;68.20
41437;DHT22;27178;49.460;10.850;2023-05-07T06:58:36;18.50;68.20
41437;DHT22;27178;49.460;10.850;2023-05-07T07:01:05;18.60;68.20
41437;DHT22;27178;49.460;10.850;2023-05-07T07:03:33;18.60;68.00
41437;DHT22;27178;49.460;10.850;2023-05-07T07:06:02;18.60;67.90
41437;DHT22;27178;49.460;10.850;2023-05-07T07:08:31;18.70;67.80
41437;DHT22;27178;49.460;10.850;2023-05-07T07:10:59;18.70;67.80
41437;DHT22;27178;49.460;10.850;2023-05-07T07:13:28;18.70;67.60
41437;DHT22;27178;49.460;10.850;2023-05-07T07:15:56;18.80;67.60
41437;DHT22;27178;49.460;10.850;2023-05-07T07:18:25;18.80;67.30
41437;DHT22;27178;49.460;10.850;2023-05-07T07:20:53;18.80;67.30
41437;DHT22;27178;49.460;10.850;2023-05-07T07:23:21;18.90;67.40
41437;DHT22;27178;49.460;10.850;2023-05-07T07:25:51;18.90;67.20
41437;DHT22;27178;49.460;10.850;2023-05-07T07:28:21;18.90;67.30
41437;DHT22;27178;49.460;10.850;2023-05-07T07:30:49;19.00;67.10
41437;DHT22;27178;49.460;10.850;2023-05-07T07:33:17;19.00;67.10
41437;DHT22;27178;49.460;10.850;2023-05-07T07:35:46;19.00;67.00
41437;DHT22;27178;49.460;10.850;2023-05-07T07:38:14;19.10;67.00
41437;DHT22;27178;49.460;10.850;2023-05-07T07:40:43;19.10;66.80
41437;DHT22;27178;49.460;10.850;2023-05-07T07:43:14;19.20;66.80
41437;DHT22;27178;49.460;10.850;2023-05-07T07:45:43;19.20;66.70
41437;DHT22;27178;49.460;10.850;2023-05-07T07:48:13;19.30;66.60
41437;DHT22;27178;49.460;10.850;2023-05-07T07:50:41;19.30;66.60
41437;DHT22;27178;49.460;10.850;2023-05-07T07:53:12;19.30;66.50
41437;DHT22;27178;49.460;10.850;2023-05-07T07:55:40;19.40;66.50
41437;DHT22;27178;49.460;10.850;2023-05-07T07:58:08;19.40;66.40
41437;DHT22;27178;49.460;10.850;2023-05-07T08:00:38;19.50;66.40
41437;DHT22;27178;49.460;10.850;2023-05-07T08:03:09;19.50;66.20
41437;DHT22;27178;49.460;10.850;2023-05-07T08:05:38;19.50;66.10
41437;DHT22;27178;49.460;10.850;2023-05-07T08:08:06;19.60;66.00
41437;DHT22;27178;49.460;10.850;2023-05-07T08:10:35;19.60;65.80
41437;DHT22;27178;49.460;10.850;2023-05-07T08:13:05;19.70;65.80
41437;DHT22;27178;49.460;10.850;2023-05-07T08:15:33;19.70;65.90
41437;DHT22;27178;49.460;10.850;2023-05-07T08:18:03;19.70;65.70
41437;DHT22;27178;49.460;10.850;2023-05-07T08:20:32;19.80;65.70
41437;DHT22;27178;49.460;10.850;2023-05-07T08:23:00;19.80;65.70
41437;DHT22;27178;49.460;10.850;2023-05-07T08:25:29;19.90;65.70
41437;DHT22;27178;49.460;10.850;2023-05-07T08:27:57;19.90;65.50
41437;DHT22;27178;49.460;10.850;2023-05-07T08:30:26;19.90;65.50
41437;DHT22;27178;49.460;10.850;2023-05-07T08:32:54;19.90;65.40
41437;DHT22;27178;49.460;10.850;2023-05-07T08:35:23;19.90;65.40
41437;DHT22;27178;49.460;10.850;2023-05-07T08:37:53;19.90;65.40
41437;DHT22;27178;49.460;10.850;2023-05-07T08:40:23;20.00;65.40
41437;DHT22;27178;49.460;10.850;2023-05-07T08:42:53;20.00;65.20
41437;DHT22;27178;49.460;10.850;2023-05-07T08:45:21;20.10;65.30
41437;DHT22;27178;49.460;10.850;2023-05-07T08:47:54;20.10;65.20
41437;DHT22;27178;49.460;10.850;2023-05-07T08:50:26;20.10;65.10
41437;DHT22;27178;49.460;10.850;2023-05-07T08:52:55;20.10;65.00
41437;DHT22;27178;49.460;10.850;2023-05-07T08:55:24;20.20;65.00
41437;DHT22;27178;49.460;10.850;2023-05-07T08:57:53;20.20;65.00
41437;DHT22;27178;49.460;10.850;2023-05-07T09:00:21;20.20;64.80
41437;DHT22;27178;49.460;10.850;2023-05-07T09:02:49;20.30;64.80
41437;DHT22;27178;49.460;10.850;2023-05-07T09:05:18;20.30;64.80
41437;DHT22;27178;49.460;10.850;2023-05-07T09:07:49;20.40;64.80
41437;DHT22;27178;49.460;10.850;2023-05-07T09:10:20;20.40;64.70
41437;DHT22;27178;49.460;10.850;2023-05-07T09:12:50;20.40;64.60
41437;DHT22;27178;49.460;10.850;2023-05-07T09:15:19;20.40;64.40
41437;DHT22;27178;49.460;10.850;2023-05-07T09:17:48;20.40;64.40
41437;DHT22;27178;49.460;10.850;2023-05-07T09:20:17;20.40;64.40
41437;DHT22;27178;49.460;10.850;2023-05-07T09:22:45;20.40;64.50
41437;DHT22;27178;49.460;10.850;2023-05-07T09:25:15;20.40;64.40
41437;DHT22;27178;49.460;10.850;2023-05-07T09:27:43;20.50;64.60
41437;DHT22;27178;49.460;10.850;2023-05-07T09:30:12;20.50;64.50
41437;DHT22;27178;49.460;10.850;2023-05-07T09:32:41;20.50;64.60
41437;DHT22;27178;49.460;10.850;2023-05-07T09:35:15;20.50;64.50
41437;DHT22;27178;49.460;10.850;2023-05-07T09:37:43;20.60;64.70
41437;DHT22;27178;49.460;10.850;2023-05-07T09:40:22;20.60;64.50
41437;DHT22;27178;49.460;10.850;2023-05-07T09:42:50;20.70;64.60
41437;DHT22;27178;49.460;10.850;2023-05-07T09:45:22;20.60;64.40
41437;DHT22;27178;49.460;10.850;2023-05-07T09:47:54;20.70;64.20
41437;DHT22;27178;49.460;10.850;2023-05-07T09:50:27;20.70;64.30
41437;DHT22;27178;49.460;10.850;2023-05-07T09:52:56;20.70;64.20
41437;DHT22;27178;49.460;10.850;2023-05-07T09:55:27;20.70;64.30
41437;DHT22;27178;49.460;10.850;2023-05-07T09:57:57;20.80;64.20
41437;DHT22;27178;49.460;10.850;2023-05-07T10:00:27;20.80;64.10
41437;DHT22;27178;49.460;10.850;2023-05-07T10:02:57;20.90;64.20
41437;DHT22;27178;49.460;10.850;2023-05-07T10:05:26;20.90;64.20
41437;DHT22;27178;49.460;10.850;2023-05-07T10:07:55;21.00;64.10
41437;DHT22;27178;49.460;10.850;2023-05-07T10:10:26;21.00;63.90
41437;DHT22;27178;49.460;10.850;2023-05-07T10:12:55;21.10;63.90
41437;DHT22;27178;49.460;10.850;2023-05-07T10:15:24;21.10;63.80
41437;DHT22;27178;49.460;10.850;2023-05-07T10:17:53;21.20;63.80
41437;DHT22;27178;49.460;10.850;2023-05-07T10:20:23;21.30;63.40
41437;DHT22;27178;49.460;10.850;2023-05-07T10:22:54;21.40;63.40
41437;DHT22;27178;49.460;10.850;2023-05-07T10:25:29;21.50;63.10
41437;DHT22;27178;49.460;10.850;2023-05-07T10:28:00;21.60;63.90
41437;DHT22;27178;49.460;10.850;2023-05-07T10:30:37;21.70;63.00
41437;DHT22;27178;49.460;10.850;2023-05-07T10:33:09;21.80;62.60
41437;DHT22;27178;49.460;10.850;2023-05-07T10:35:41;21.90;62.30
41437;DHT22;27178;49.460;10.850;2023-05-07T10:38:11;22.00;62.20
41437;DHT22;27178;49.460;10.850;2023-05-07T10:40:40;22.70;62.60
41437;DHT22;27178;49.460;10.850;2023-05-07T10:43:09;22.10;61.90
41437;DHT22;27178;49.460;10.850;2023-05-07T10:45:37;22.20;61.80
41437;DHT22;27178;49.460;10.850;2023-05-07T10:48:10;22.20;61.70
41437;DHT22;27178;49.460;10.850;2023-05-07T10:50:42;22.30;61.60
41437;DHT22;27178;49.460;10.850;2023-05-07T10:53:21;22.40;61.40
41437;DHT22;27178;49.460;10.850;2023-05-07T10:56:24;22.50;61.00
41437;DHT22;27178;49.460;10.850;2023-05-07T10:58:53;22.60;61.00
41437;DHT22;27178;49.460;10.850;2023-05-07T11:01:50;22.70;60.70
41437;DHT22;27178;49.460;10.850;2023-05-07T11:04:20;22.80;59.90
41437;DHT22;27178;49.460;10.850;2023-05-07T11:07:23;22.90;60.00
41437;DHT22;27178;49.460;10.850;2023-05-07T11:10:00;22.90;59.70
41437;DHT22;27178;49.460;10.850;2023-05-07T11:12:49;22.90;59.70
41437;DHT22;27178;49.460;10.850;2023-05-07T11:15:42;22.80;59.50
41437;DHT22;27178;49.460;10.850;2023-05-07T11:18:12;22.80;59.40
41437;DHT22;27178;49.460;10.850;2023-05-07T11:20:54;22.80;59.60
41437;DHT22;27178;49.460;10.850;2023-05-07T11:26:30;22.80;59.40
41437;DHT22;27178;49.460;10.850;2023-05-07T11:29:00;22.80;59.60
41437;DHT22;27178;49.460;10.850;2023-05-07T11:31:28;22.80;59.40
41437;DHT22;27178;49.460;10.850;2023-05-07T11:33:57;22.80;59.50
41437;DHT22;27178;49.460;10.850;2023-05-07T11:36:30;22.80;59.50
41437;DHT22;27178;49.460;10.850;2023-05-07T11:39:00;22.80;59.50
41437;DHT22;27178;49.460;10.850;2023-05-07T11:41:35;22.90;59.30
41437;DHT22;27178;49.460;10.850;2023-05-07T11:44:05;23.00;59.20
41437;DHT22;27178;49.460;10.850;2023-05-07T11:46:34;23.00;59.20
41437;DHT22;27178;49.460;10.850;2023-05-07T11:49:02;23.00;59.20
41437;DHT22;27178;49.460;10.850;2023-05-07T11:51:30;23.00;59.00
41437;DHT22;27178;49.460;10.850;2023-05-07T11:53:58;23.00;59.00
41437;DHT22;27178;49.460;10.850;2023-05-07T11:56:27;23.00;58.80
41437;DHT22;27178;49.460;10.850;2023-05-07T11:58:56;23.00;58.80
41437;DHT22;27178;49.460;10.850;2023-05-07T12:01:25;23.00;58.80
41437;DHT22;27178;49.460;10.850;2023-05-07T12:03:54;23.00;58.70
41437;DHT22;27178;49.460;10.850;2023-05-07T12:06:22;23.00;58.70
41437;DHT22;27178;49.460;10.850;2023-05-07T12:08:50;22.90;58.70
41437;DHT22;27178;49.460;10.850;2023-05-07T12:11:22;22.90;58.70
41437;DHT22;27178;49.460;10.850;2023-05-07T12:13:53;22.90;58.80
41437;DHT22;27178;49.460;10.850;2023-05-07T12:16:26;22.80;58.60
41437;DHT22;27178;49.460;10.850;2023-05-07T12:18:55;22.80;58.80
41437;DHT22;27178;49.460;10.850;2023-05-07T12:21:25;22.80;58.80
41437;DHT22;27178;49.460;10.850;2023-05-07T12:23:54;22.80;58.90
41437;DHT22;27178;49.460;10.850;2023-05-07T12:26:23;22.80;59.00
41437;DHT22;27178;49.460;10.850;2023-05-07T12:28:51;22.80;58.90
41437;DHT22;27178;49.460;10.850;2023-05-07T12:31:19;22.70;59.00
41437;DHT22;27178;49.460;10.850;2023-05-07T12:33:48;22.70;59.00
41437;DHT22;27178;49.460;10.850;2023-05-07T12:36:17;22.70;58.90
41437;DHT22;27178;49.460;10.850;2023-05-07T12:38:45;22.70;59.00
41437;DHT22;27178;49.460;10.850;2023-05-07T12:41:17;22.80;58.90
41437;DHT22;27178;49.460;10.850;2023-05-07T12:43:46;22.80;58.90
41437;DHT22;27178;49.460;10.850;2023-05-07T12:46:14;22.80;58.80
41437;DHT22;27178;49.460;10.850;2023-05-07T12:48:45;22.90;59.10
41437;DHT22;27178;49.460;10.850;2023-05-07T12:51:15;23.00;59.80
41437;DHT22;27178;49.460;10.850;2023-05-07T12:53:43;23.20;59.30
41437;DHT22;27178;49.460;10.850;2023-05-07T12:56:15;23.40;59.50
41437;DHT22;27178;49.460;10.850;2023-05-07T12:58:44;23.60;59.10
41437;DHT22;27178;49.460;10.850;2023-05-07T13:01:12;23.90;58.90
41437;DHT22;27178;49.460;10.850;2023-05-07T13:03:48;24.10;58.50
41437;DHT22;27178;49.460;10.850;2023-05-07T13:06:18;24.40;57.90
41437;DHT22;27178;49.460;10.850;2023-05-07T13:08:47;24.60;57.80
41437;DHT22;27178;49.460;10.850;2023-05-07T13:11:16;24.70;57.50
41437;DHT22;27178;49.460;10.850;2023-05-07T13:13:44;24.80;57.20
41437;DHT22;27178;49.460;10.850;2023-05-07T13:16:12;24.90;56.80
41437;DHT22;27178;49.460;10.850;2023-05-07T13:18:41;25.00;56.40
41437;DHT22;27178;49.460;10.850;2023-05-07T13:21:10;25.00;56.90
41437;DHT22;27178;49.460;10.850;2023-05-07T13:23:41;25.00;56.10
41437;DHT22;27178;49.460;10.850;2023-05-07T13:26:10;24.90;55.90
41437;DHT22;27178;49.460;10.850;2023-05-07T13:28:52;24.80;55.90
41437;DHT22;27178;49.460;10.850;2023-05-07T13:31:21;24.80;56.00
41437;DHT22;27178;49.460;10.850;2023-05-07T13:33:49;24.80;55.90
41437;DHT22;27178;49.460;10.850;2023-05-07T13:36:17;24.70;55.90
41437;DHT22;27178;49.460;10.850;2023-05-07T13:38:47;24.70;55.90
41437;DHT22;27178;49.460;10.850;2023-05-07T13:41:16;24.60;55.90
41437;DHT22;27178;49.460;10.850;2023-05-07T13:43:45;24.60;56.00
41437;DHT22;27178;49.460;10.850;2023-05-07T13:46:13;24.60;55.90
41437;DHT22;27178;49.460;10.850;2023-05-07T13:48:41;24.60;56.00
41437;DHT22;27178;49.460;10.850;2023-05-07T13:51:09;24.60;56.00
41437;DHT22;27178;49.460;10.850;2023-05-07T13:53:38;24.60;56.10
41437;DHT22;27178;49.460;10.850;2023-05-07T13:56:08;24.70;56.50
41437;DHT22;27178;49.460;10.850;2023-05-07T13:58:36;24.80;56.60
41437;DHT22;27178;49.460;10.850;2023-05-07T14:01:24;25.00;56.40
41437;DHT22;27178;49.460;10.850;2023-05-07T14:03:53;25.20;56.30
41437;DHT22;27178;49.460;10.850;2023-05-07T14:06:21;25.30;56.10
41437;DHT22;27178;49.460;10.850;2023-05-07T14:08:49;25.60;56.10
41437;DHT22;27178;49.460;10.850;2023-05-07T14:11:19;25.80;56.00
41437;DHT22;27178;49.460;10.850;2023-05-07T14:13:48;26.10;55.50
41437;DHT22;27178;49.460;10.850;2023-05-07T14:16:16;26.30;55.20
41437;DHT22;27178;49.460;10.850;2023-05-07T14:18:44;26.50;55.40
41437;DHT22;27178;49.460;10.850;2023-05-07T14:21:13;26.60;54.50
41437;DHT22;27178;49.460;10.850;2023-05-07T14:23:41;26.70;53.70
41437;DHT22;27178;49.460;10.850;2023-05-07T14:26:09;26.80;53.60
41437;DHT22;27178;49.460;10.850;2023-05-07T14:28:39;26.80;53.20
41437;DHT22;27178;49.460;10.850;2023-05-07T14:31:12;26.80;53.10
41437;DHT22;27178;49.460;10.850;2023-05-07T14:33:44;26.70;53.10
41437;DHT22;27178;49.460;10.850;2023-05-07T14:36:12;26.60;52.80
41437;DHT22;27178;49.460;10.850;2023-05-07T14:38:40;26.60;52.80
41437;DHT22;27178;49.460;10.850;2023-05-07T14:41:09;26.50;52.40
41437;DHT22;27178;49.460;10.850;2023-05-07T14:43:37;26.40;52.60
41437;DHT22;27178;49.460;10.850;2023-05-07T14:46:07;26.30;52.80
41437;DHT22;27178;49.460;10.850;2023-05-07T14:48:35;26.20;52.80
41437;DHT22;27178;49.460;10.850;2023-05-07T14:51:04;26.10;52.90
41437;DHT22;27178;49.460;10.850;2023-05-07T14:53:33;26.00;52.70
41437;DHT22;27178;49.460;10.850;2023-05-07T14:56:02;25.90;52.90
41437;DHT22;27178;49.460;10.850;2023-05-07T14:58:30;25.80;52.90
41437;DHT22;27178;49.460;10.850;2023-05-07T15:00:59;25.70;53.00
41437;DHT22;27178;49.460;10.850;2023-05-07T15:03:30;25.70;53.10
41437;DHT22;27178;49.460;10.850;2023-05-07T15:05:58;25.60;53.20
41437;DHT22;27178;49.460;10.850;2023-05-07T15:08:27;25.60;53.30
41437;DHT22;27178;49.460;10.850;2023-05-07T15:10:55;25.60;53.30
41437;DHT22;27178;49.460;10.850;2023-05-07T15:13:24;25.50;53.40
41437;DHT22;27178;49.460;10.850;2023-05-07T15:15:52;25.50;53.40
41437;DHT22;27178;49.460;10.850;2023-05-07T15:18:20;25.50;53.20
41437;DHT22;27178;49.460;10.850;2023-05-07T15:20:50;25.60;53.30
41437;DHT22;27178;49.460;10.850;2023-05-07T15:23:18;25.60;53.80
41437;DHT22;27178;49.460;10.850;2023-05-07T15:25:47;25.60;53.50
41437;DHT22;27178;49.460;10.850;2023-05-07T15:28:18;25.70;53.50
41437;DHT22;27178;49.460;10.850;2023-05-07T15:30:46;25.80;53.90
41437;DHT22;27178;49.460;10.850;2023-05-07T15:33:15;25.80;53.30